Terminal Aerodrome Forecast
Issued by NWS

Home | Current Version | Previous Version | Text Only | Print | Product List | Glossary On
Versions: 1 2 3 4 5 6 7 8 9 10 11 12 13 14 15 16 17 18 19 20 21 22 23 24 25 26 27 28 29 30 31 32 33
000
FTUS45 KSLC 271733
TAFOGD
TAF
KOGD 271733Z 2718/2818 17009KT P6SM BKN040
     FM280300 16006KT P6SM SCT040 BKN080
     FM281000 17011KT P6SM VCSH SCT030 BKN050
     FM281300 17011KT 1/2SM SN FG SCT003 OVC006=

USA.gov is the U.S. government's official web portal to all federal, state and local government web resources and services.